createdAt,value
2018-02-14T00:00:20.502Z,13.53
2018-02-14T00:02:48.061Z,13.80
2018-02-14T00:05:15.576Z,13.20
2018-02-14T00:07:43.082Z,14.17
2018-02-14T00:10:10.666Z,13.87
2018-02-14T00:12:38.151Z,14.73
2018-02-14T00:15:05.639Z,14.93
2018-02-14T00:17:33.119Z,13.00
2018-02-14T00:20:00.638Z,13.73
2018-02-14T00:22:28.111Z,13.40
2018-02-14T00:24:55.588Z,13.07
2018-02-14T00:27:23.145Z,15.73
2018-02-14T00:29:50.636Z,14.50
2018-02-14T00:32:18.108Z,14.57
2018-02-14T00:34:45.694Z,13.33
2018-02-14T00:37:13.174Z,15.53
2018-02-14T00:39:40.656Z,12.67
2018-02-14T00:42:08.215Z,13.97
2018-02-14T00:44:35.715Z,13.77
2018-02-14T00:47:03.181Z,13.90
2018-02-14T00:49:30.723Z,14.93
2018-02-14T00:51:58.280Z,13.27
2018-02-14T00:54:25.771Z,13.50
2018-02-14T00:56:53.240Z,13.53
2018-02-14T00:59:20.769Z,12.43
2018-02-14T01:01:48.245Z,13.63
2018-02-14T01:04:15.714Z,13.20
2018-02-14T01:06:43.196Z,14.33
2018-02-14T01:09:10.669Z,14.97
2018-02-14T01:11:38.161Z,14.90
2018-02-14T01:14:05.634Z,14.43
2018-02-14T01:16:33.173Z,15.23
2018-02-14T01:19:06.252Z,14.77
2018-02-14T01:21:33.728Z,15.60
2018-02-14T01:24:01.257Z,14.37
2018-02-14T01:26:28.734Z,16.13
2018-02-14T01:28:56.262Z,15.50
2018-02-14T01:31:23.754Z,16.50
2018-02-14T01:33:51.234Z,14.67
2018-02-14T01:36:18.774Z,17.07
2018-02-14T01:38:46.263Z,14.83
2018-02-14T01:41:13.812Z,15.27
2018-02-14T01:43:41.286Z,16.47
2018-02-14T01:46:08.853Z,14.43
2018-02-14T01:48:36.328Z,15.87
2018-02-14T01:51:03.801Z,15.30
2018-02-14T01:53:31.465Z,14.87
2018-02-14T01:55:58.963Z,15.30
2018-02-14T01:58:26.452Z,16.03
2018-02-14T02:00:54.004Z,15.00
2018-02-14T02:03:21.494Z,17.03
2018-02-14T02:05:49.032Z,16.33
2018-02-14T02:10:49.378Z,16.67
2018-02-14T02:13:16.817Z,17.03
2018-02-14T02:15:44.264Z,16.17
2018-02-14T02:18:11.769Z,14.83
2018-02-14T02:20:39.311Z,15.23
2018-02-14T02:23:06.841Z,15.93
2018-02-14T02:25:34.410Z,16.40
2018-02-14T02:28:01.985Z,13.97
2018-02-14T02:30:29.559Z,14.27
2018-02-14T02:32:57.038Z,15.47
2018-02-14T02:35:24.527Z,15.87
2018-02-14T02:37:52.450Z,15.67
2018-02-14T02:40:31.605Z,14.90
2018-02-14T02:42:59.103Z,16.13
2018-02-14T02:45:26.582Z,18.77
2018-02-14T02:47:54.056Z,18.30
2018-02-14T02:50:21.565Z,16.73
2018-02-14T02:52:49.059Z,17.03
2018-02-14T02:55:16.639Z,16.53
2018-02-14T02:57:44.116Z,16.97
2018-02-14T03:00:12.973Z,16.10
2018-02-14T03:02:40.446Z,17.03
2018-02-14T03:05:07.941Z,16.33
2018-02-14T03:07:35.433Z,16.90
2018-02-14T03:10:03.010Z,16.80
2018-02-14T03:12:30.497Z,17.27
2018-02-14T03:14:57.972Z,17.27
2018-02-14T03:17:25.453Z,18.00
2018-02-14T03:19:52.991Z,16.30
2018-02-14T03:22:20.475Z,16.90
2018-02-14T03:24:48.047Z,17.33
2018-02-14T03:27:15.529Z,16.93
2018-02-14T03:29:43.010Z,15.43
2018-02-14T03:32:10.477Z,16.10
2018-02-14T03:34:37.953Z,18.13
2018-02-14T03:37:05.942Z,16.47
2018-02-14T03:39:33.425Z,15.73
2018-02-14T03:42:00.910Z,16.83
2018-02-14T03:44:28.394Z,17.40
2018-02-14T03:46:55.874Z,18.43
2018-02-14T03:51:57.180Z,17.20
2018-02-14T03:54:24.752Z,16.90
2018-02-14T03:56:53.181Z,18.20
2018-02-14T03:59:20.664Z,16.97
2018-02-14T04:01:48.125Z,17.23
2018-02-14T04:04:15.632Z,17.60
2018-02-14T04:06:43.117Z,18.33
2018-02-14T04:09:10.617Z,17.40
2018-02-14T04:11:38.097Z,16.87
2018-02-14T04:14:05.625Z,17.40
2018-02-14T04:16:33.092Z,17.10
2018-02-14T04:19:00.647Z,16.90
2018-02-14T04:21:28.147Z,15.53
2018-02-14T04:23:55.635Z,17.37
2018-02-14T04:26:23.105Z,16.30
2018-02-14T04:28:50.587Z,16.33
2018-02-14T04:31:18.058Z,15.03
2018-02-14T04:33:45.538Z,17.20
2018-02-14T04:36:13.021Z,17.83
2018-02-14T04:38:40.508Z,15.73
2018-02-14T04:41:07.971Z,18.03
2018-02-14T04:43:35.555Z,17.07
2018-02-14T04:46:03.162Z,16.40
2018-02-14T04:48:30.631Z,18.23
2018-02-14T04:50:58.115Z,15.33
2018-02-14T04:53:25.601Z,16.70
2018-02-14T04:55:53.117Z,15.77
2018-02-14T04:58:20.597Z,16.57
2018-02-14T05:00:48.096Z,15.30
2018-02-14T05:03:15.576Z,17.07
2018-02-14T05:05:43.046Z,15.67
2018-02-14T05:08:10.508Z,17.20
2018-02-14T05:10:37.985Z,16.77
2018-02-14T05:13:05.449Z,15.97
2018-02-14T05:15:32.933Z,17.77
2018-02-14T05:18:00.434Z,16.37
2018-02-14T05:20:28.017Z,17.53
2018-02-14T05:22:55.516Z,17.00
2018-02-14T05:25:22.995Z,15.97
2018-02-14T05:27:50.480Z,16.73
2018-02-14T05:30:17.958Z,17.77
2018-02-14T05:32:45.440Z,16.13
2018-02-14T05:35:12.912Z,18.13
2018-02-14T05:37:40.402Z,16.17
2018-02-14T05:40:07.869Z,14.67
2018-02-14T05:42:35.438Z,15.97
2018-02-14T05:45:02.946Z,16.00
2018-02-14T05:47:30.425Z,15.73
2018-02-14T05:49:57.897Z,16.33
2018-02-14T05:52:25.463Z,16.83
2018-02-14T05:54:52.997Z,17.00
2018-02-14T05:57:20.477Z,15.57
2018-02-14T05:59:47.949Z,16.13
2018-02-14T06:02:15.454Z,15.63
2018-02-14T06:04:42.930Z,16.27
2018-02-14T06:07:10.414Z,15.33
2018-02-14T06:09:37.926Z,16.47
2018-02-14T06:12:05.386Z,14.80
2018-02-14T06:14:32.965Z,15.37
2018-02-14T06:17:00.535Z,16.40
2018-02-14T06:19:28.045Z,16.83
2018-02-14T06:21:55.522Z,15.27
2018-02-14T06:24:23.019Z,14.63
2018-02-14T06:26:50.496Z,15.10
2018-02-14T06:29:18.029Z,15.93
2018-02-14T06:31:45.506Z,15.33
2018-02-14T06:34:12.997Z,16.10
2018-02-14T06:36:40.508Z,16.57
2018-02-14T06:39:07.993Z,15.33
2018-02-14T06:41:35.464Z,15.60
2018-02-14T06:44:03.012Z,13.13
2018-02-14T06:46:30.573Z,13.10
2018-02-14T06:48:58.072Z,12.90
2018-02-14T06:51:25.574Z,12.80
2018-02-14T06:53:53.075Z,11.90
2018-02-14T06:56:20.550Z,11.97
2018-02-14T06:58:48.070Z,11.63
2018-02-14T07:01:15.539Z,13.17
2018-02-14T07:03:43.017Z,11.63
2018-02-14T07:06:10.496Z,11.53
2018-02-14T07:08:37.983Z,11.00
2018-02-14T07:11:05.462Z,11.80
2018-02-14T07:13:32.929Z,12.60
2018-02-14T07:16:00.408Z,12.77
2018-02-14T07:18:27.905Z,12.37
2018-02-14T07:20:55.372Z,11.93
2018-02-14T07:23:28.504Z,13.83
2018-02-14T07:25:56.059Z,13.13
2018-02-14T07:28:23.542Z,12.80
2018-02-14T07:30:51.078Z,13.03
2018-02-14T07:33:18.559Z,12.53
2018-02-14T07:35:46.115Z,12.40
2018-02-14T07:38:13.577Z,11.73
2018-02-14T07:40:41.158Z,13.57
2018-02-14T07:43:08.646Z,11.67
2018-02-14T07:45:36.111Z,12.57
2018-02-14T07:48:03.586Z,10.57
2018-02-14T07:50:31.146Z,12.90
2018-02-14T07:52:58.641Z,11.50
2018-02-14T07:55:26.140Z,12.23
2018-02-14T07:57:53.602Z,13.67
2018-02-14T08:00:21.220Z,11.10
2018-02-14T08:02:48.890Z,11.43
2018-02-14T08:05:16.377Z,12.27
2018-02-14T08:07:43.856Z,13.53
2018-02-14T08:10:11.331Z,12.07
2018-02-14T08:12:38.824Z,12.97
2018-02-14T08:15:06.294Z,13.97
2018-02-14T08:17:33.825Z,12.93
2018-02-14T08:20:01.294Z,12.33
2018-02-14T08:22:28.779Z,13.53
2018-02-14T08:24:56.254Z,14.70
2018-02-14T08:27:23.746Z,13.93
2018-02-14T08:29:51.273Z,14.37
2018-02-14T08:32:18.754Z,14.17
2018-02-14T08:34:46.315Z,13.43
2018-02-14T08:37:13.839Z,13.67
2018-02-14T08:39:41.329Z,13.40
2018-02-14T08:42:08.800Z,14.57
2018-02-14T08:44:36.276Z,14.30
2018-02-14T08:47:03.763Z,15.37
2018-02-14T08:49:31.334Z,15.13
2018-02-14T08:51:58.797Z,15.37
2018-02-14T08:54:26.315Z,15.50
2018-02-14T08:56:53.786Z,15.33
2018-02-14T08:59:21.312Z,16.57
2018-02-14T09:01:48.885Z,16.57
2018-02-14T09:04:16.462Z,15.03
2018-02-14T09:06:44.093Z,16.43
2018-02-14T09:09:11.569Z,15.60
2018-02-14T09:11:39.037Z,16.33
2018-02-14T09:14:06.579Z,16.40
2018-02-14T09:16:34.048Z,17.67
2018-02-14T09:19:01.545Z,16.70
2018-02-14T09:21:29.024Z,18.53
2018-02-14T09:23:56.510Z,18.70
2018-02-14T09:26:24.092Z,18.50
2018-02-14T09:28:51.672Z,19.33
2018-02-14T09:31:19.243Z,17.77
2018-02-14T09:33:46.704Z,18.80
2018-02-14T09:36:14.186Z,15.97
2018-02-14T09:38:41.653Z,15.80
2018-02-14T09:41:09.143Z,16.43
2018-02-14T09:43:36.635Z,16.67
2018-02-14T09:46:04.119Z,17.43
2018-02-14T09:48:31.580Z,18.43
2018-02-14T09:50:59.108Z,16.93
2018-02-14T09:53:26.691Z,19.03
2018-02-14T09:55:54.257Z,17.77
2018-02-14T09:58:21.934Z,17.43
2018-02-14T10:00:49.493Z,17.40
2018-02-14T10:03:17.001Z,17.70
2018-02-14T10:05:44.539Z,19.30
2018-02-14T10:08:12.077Z,17.37
2018-02-14T10:10:39.583Z,19.17
2018-02-14T10:13:07.081Z,18.97
2018-02-14T10:15:34.547Z,19.50
2018-02-14T10:18:02.095Z,19.80
2018-02-14T10:20:29.595Z,19.93
2018-02-14T10:22:57.091Z,19.53
2018-02-14T10:25:24.592Z,19.30
2018-02-14T10:27:52.079Z,19.80
2018-02-14T10:30:19.662Z,20.17
2018-02-14T10:32:47.262Z,19.13
2018-02-14T10:35:14.757Z,19.43
2018-02-14T10:37:42.262Z,20.40
2018-02-14T10:40:09.740Z,18.93
2018-02-14T10:42:37.229Z,18.67
2018-02-14T10:45:04.713Z,19.87
2018-02-14T10:47:32.194Z,20.80
2018-02-14T10:49:59.732Z,20.53
2018-02-14T10:52:27.239Z,18.97
2018-02-14T10:54:54.747Z,19.27
2018-02-14T10:57:22.340Z,19.40
2018-02-14T10:59:49.836Z,19.33
2018-02-14T11:02:17.365Z,17.07
2018-02-14T11:04:50.617Z,17.10
2018-02-14T11:07:19.139Z,16.73
2018-02-14T11:09:46.646Z,17.33
2018-02-14T11:12:14.116Z,16.07
2018-02-14T11:14:41.602Z,18.03
2018-02-14T11:17:09.165Z,18.10
2018-02-14T11:19:37.075Z,17.03
2018-02-14T11:22:04.555Z,17.87
2018-02-14T11:24:32.070Z,20.97
2018-02-14T11:26:59.646Z,20.00
2018-02-14T11:29:27.150Z,17.20
2018-02-14T11:31:54.635Z,12.60
2018-02-14T11:34:22.126Z,10.97
2018-02-14T11:36:49.689Z,13.37
2018-02-14T11:39:17.217Z,11.63
2018-02-14T11:41:44.713Z,11.53
2018-02-14T11:44:12.500Z,12.23
2018-02-14T11:46:40.297Z,9.73
2018-02-14T11:49:07.827Z,10.70
2018-02-14T11:51:35.361Z,10.33
2018-02-14T11:54:02.952Z,11.87
2018-02-14T11:56:30.441Z,9.87
2018-02-14T11:58:57.925Z,13.63
2018-02-14T12:01:25.462Z,12.47
2018-02-14T12:03:53.190Z,8.40
2018-02-14T12:06:20.685Z,8.30
2018-02-14T12:08:48.170Z,8.53
2018-02-14T12:11:15.990Z,8.53
2018-02-14T12:13:43.780Z,8.70
2018-02-14T12:16:11.260Z,8.77
2018-02-14T12:18:39.062Z,7.80
2018-02-14T12:21:06.555Z,8.10
2018-02-14T12:23:34.069Z,8.53
2018-02-14T12:26:01.560Z,8.50
2018-02-14T12:28:29.046Z,8.00
2018-02-14T12:30:56.645Z,6.30
2018-02-14T12:33:24.193Z,7.43
2018-02-14T12:35:51.670Z,7.77
2018-02-14T12:38:19.154Z,7.03
2018-02-14T12:40:46.613Z,8.00
2018-02-14T12:43:14.181Z,7.00
2018-02-14T12:45:42.021Z,7.90
2018-02-14T12:48:09.478Z,6.73
2018-02-14T12:53:30.150Z,8.20
2018-02-14T12:55:57.645Z,7.97
2018-02-14T12:58:25.112Z,7.60
2018-02-14T13:00:52.595Z,7.80
2018-02-14T13:03:20.303Z,7.77
2018-02-14T13:05:48.096Z,7.97
2018-02-14T13:08:15.567Z,7.77
2018-02-14T13:10:43.035Z,7.83
2018-02-14T13:13:10.498Z,7.97
2018-02-14T13:15:37.987Z,8.03
2018-02-14T13:18:05.538Z,9.70
2018-02-14T13:20:33.028Z,7.57
2018-02-14T13:23:00.517Z,9.10
2018-02-14T13:25:27.981Z,7.90
2018-02-14T13:27:55.440Z,8.43
2018-02-14T13:30:22.943Z,8.90
2018-02-14T13:32:50.412Z,8.80
2018-02-14T13:35:17.972Z,7.80
2018-02-14T13:37:45.502Z,6.53
2018-02-14T13:40:13.268Z,7.17
2018-02-14T13:42:40.749Z,8.07
2018-02-14T13:45:08.261Z,7.57
2018-02-14T13:47:35.728Z,7.17
2018-02-14T13:50:03.241Z,6.83
2018-02-14T13:52:30.683Z,7.00
2018-02-14T13:54:58.244Z,7.07
2018-02-14T13:57:25.718Z,8.73
2018-02-14T13:59:53.178Z,8.10
2018-02-14T14:02:20.932Z,8.23
2018-02-14T14:04:48.390Z,7.30
2018-02-14T14:07:15.863Z,7.53
2018-02-14T14:09:43.352Z,9.33
2018-02-14T14:12:10.830Z,7.63
2018-02-14T14:14:38.337Z,8.77
2018-02-14T14:17:05.801Z,9.03
2018-02-14T14:19:33.341Z,9.33
2018-02-14T14:22:01.192Z,8.33
2018-02-14T14:24:28.705Z,8.37
2018-02-14T14:26:56.171Z,9.73
2018-02-14T14:29:23.638Z,8.47
2018-02-14T14:31:51.098Z,8.40
2018-02-14T14:34:18.621Z,9.60
2018-02-14T14:36:46.171Z,9.23
2018-02-14T14:39:13.678Z,10.57
2018-02-14T14:41:41.149Z,10.83
2018-02-14T14:44:08.656Z,8.80
2018-02-14T14:46:36.186Z,8.67
2018-02-14T14:49:03.753Z,8.07
2018-02-14T14:51:31.278Z,7.00
2018-02-14T14:53:58.751Z,6.67
2018-02-14T14:56:26.224Z,5.97
2018-02-14T14:58:53.699Z,8.37
2018-02-14T15:01:21.271Z,6.67
2018-02-14T15:03:48.745Z,7.53
2018-02-14T15:06:16.222Z,6.80
2018-02-14T15:08:43.776Z,6.70
2018-02-14T15:11:11.303Z,8.03
2018-02-14T15:13:38.803Z,8.13
2018-02-14T15:16:06.390Z,7.90
2018-02-14T15:18:33.877Z,8.40
2018-02-14T15:21:01.385Z,10.33
2018-02-14T15:23:28.883Z,9.90
2018-02-14T15:25:56.375Z,9.90
2018-02-14T15:28:23.837Z,8.97
2018-02-14T15:30:51.394Z,11.43
2018-02-14T15:33:18.840Z,10.67
2018-02-14T15:35:46.304Z,9.93
2018-02-14T15:38:13.782Z,11.10
2018-02-14T15:40:41.246Z,11.23
2018-02-14T15:43:08.745Z,11.03
2018-02-14T15:45:36.238Z,10.03
2018-02-14T15:48:03.766Z,11.23
2018-02-14T15:50:31.326Z,11.50
2018-02-14T15:52:58.811Z,11.60
2018-02-14T15:55:26.303Z,11.33
2018-02-14T15:57:53.778Z,12.57
2018-02-14T16:00:21.251Z,13.80
2018-02-14T16:02:48.758Z,13.43
2018-02-14T16:05:16.257Z,14.70
2018-02-14T16:07:43.785Z,13.13
2018-02-14T16:10:11.294Z,12.60
2018-02-14T16:12:38.795Z,15.43
2018-02-14T16:15:06.307Z,16.90
2018-02-14T16:17:33.781Z,15.30
2018-02-14T16:20:01.276Z,16.47
2018-02-14T16:22:28.818Z,17.37
2018-02-14T16:24:56.279Z,16.03
2018-02-14T16:27:23.880Z,15.40
2018-02-14T16:29:51.433Z,14.33
2018-02-14T16:32:19.021Z,16.13
2018-02-14T16:34:46.500Z,15.07
2018-02-14T16:37:14.013Z,17.43
2018-02-14T16:39:41.483Z,17.70
2018-02-14T16:42:08.952Z,18.30
2018-02-14T16:44:36.434Z,17.43
2018-02-14T16:47:03.955Z,17.53
2018-02-14T16:49:31.520Z,17.27
2018-02-14T16:51:58.984Z,17.00
2018-02-14T16:54:26.538Z,18.70
2018-02-14T16:56:54.121Z,17.83
2018-02-14T16:59:21.697Z,18.60
2018-02-14T17:01:49.174Z,18.20
2018-02-14T17:04:16.719Z,18.47
2018-02-14T17:06:44.220Z,20.20
2018-02-14T17:09:11.763Z,20.97
2018-02-14T17:11:39.239Z,20.20
2018-02-14T17:14:06.701Z,22.87
2018-02-14T17:16:34.212Z,21.70
2018-02-14T17:19:01.829Z,22.37
2018-02-14T17:21:29.285Z,21.90
2018-02-14T17:23:56.878Z,23.53
2018-02-14T17:26:24.377Z,22.80
2018-02-14T17:28:51.860Z,25.53
2018-02-14T17:31:19.326Z,25.47
2018-02-14T17:33:46.826Z,27.10
2018-02-14T17:36:14.303Z,25.10
2018-02-14T17:38:41.789Z,25.03
2018-02-14T17:41:09.274Z,24.43
2018-02-14T17:43:36.768Z,24.67
2018-02-14T17:46:04.375Z,21.17
2018-02-14T17:48:32.113Z,23.03
2018-02-14T17:50:59.627Z,26.20
2018-02-14T17:53:27.272Z,25.00
2018-02-14T17:55:54.809Z,25.40
2018-02-14T17:58:22.274Z,25.10
2018-02-14T18:00:49.977Z,24.23
2018-02-14T18:03:17.523Z,25.33
2018-02-14T18:05:45.344Z,22.60
2018-02-14T18:08:13.330Z,22.37
2018-02-14T18:10:41.122Z,22.43
2018-02-14T18:13:08.841Z,25.13
2018-02-14T18:15:40.774Z,22.57
2018-02-14T18:18:08.411Z,23.37
2018-02-14T18:20:35.978Z,21.47
2018-02-14T18:23:03.554Z,23.57
2018-02-14T18:25:31.094Z,24.70
2018-02-14T18:27:58.594Z,22.53
2018-02-14T18:30:26.088Z,22.97
2018-02-14T18:32:53.715Z,24.97
2018-02-14T18:35:21.540Z,25.57
2018-02-14T18:37:49.256Z,28.27
2018-02-14T18:40:16.747Z,29.00
2018-02-14T18:42:44.431Z,31.07
2018-02-14T18:45:12.166Z,31.57
2018-02-14T18:47:39.664Z,30.70
2018-02-14T18:50:07.139Z,30.90
2018-02-14T18:52:34.669Z,30.73
2018-02-14T18:55:02.659Z,31.57
2018-02-14T18:57:30.576Z,29.47
2018-02-14T18:59:58.126Z,27.60
2018-02-14T19:02:25.636Z,26.80
2018-02-14T19:04:53.305Z,27.60
2018-02-14T19:07:20.823Z,27.40
2018-02-14T19:09:48.424Z,26.10
2018-02-14T19:12:16.062Z,28.27
2018-02-14T19:14:44.130Z,26.83
2018-02-14T19:17:11.724Z,29.87
2018-02-14T19:19:39.581Z,35.93
2018-02-14T19:22:07.093Z,41.83
2018-02-14T19:24:34.568Z,43.20
2018-02-14T19:27:02.049Z,38.57
2018-02-14T19:29:29.687Z,32.07
2018-02-14T19:31:57.213Z,30.73
2018-02-14T19:34:24.932Z,28.37
2018-02-14T19:36:52.698Z,27.00
2018-02-14T19:39:20.700Z,27.77
2018-02-14T19:41:48.560Z,27.87
2018-02-14T19:44:16.216Z,26.50
2018-02-14T19:46:43.755Z,29.00
2018-02-14T19:49:11.316Z,28.97
2018-02-14T19:51:38.791Z,30.30
2018-02-14T19:54:06.375Z,28.07
2018-02-14T19:56:33.963Z,28.57
2018-02-14T19:59:01.447Z,26.97
2018-02-14T20:01:28.993Z,28.80
2018-02-14T20:03:56.592Z,28.50
2018-02-14T20:06:24.078Z,29.10
2018-02-14T20:08:51.641Z,27.57
2018-02-14T20:11:19.325Z,26.30
2018-02-14T20:13:46.829Z,27.13
2018-02-14T20:16:14.428Z,26.17
2018-02-14T20:18:41.998Z,27.10
2018-02-14T20:21:09.488Z,26.97
2018-02-14T20:23:37.028Z,28.60
2018-02-14T20:26:04.497Z,29.23
2018-02-14T20:28:31.986Z,27.57
2018-02-14T20:30:59.578Z,30.20
2018-02-14T20:33:27.094Z,29.37
2018-02-14T20:35:55.916Z,28.97
2018-02-14T20:38:23.430Z,28.00
2018-02-14T20:40:50.945Z,28.83
2018-02-14T20:43:18.484Z,29.87
2018-02-14T20:45:46.085Z,27.13
2018-02-14T20:48:13.604Z,25.93
2018-02-14T20:50:41.099Z,28.07
2018-02-14T20:53:08.600Z,30.20
2018-02-14T20:55:36.879Z,28.03
2018-02-14T20:58:04.365Z,29.23
2018-02-14T21:00:31.869Z,27.80
2018-02-14T21:02:59.441Z,26.93
2018-02-14T21:05:27.016Z,27.77
2018-02-14T21:07:54.538Z,30.23
2018-02-14T21:10:22.094Z,29.83
2018-02-14T21:12:49.720Z,28.63
2018-02-14T21:15:17.324Z,30.07
2018-02-14T21:17:44.798Z,29.13
2018-02-14T21:20:12.375Z,29.40
2018-02-14T21:22:39.868Z,30.73
2018-02-14T21:25:07.371Z,30.03
2018-02-14T21:27:34.848Z,27.40
2018-02-14T21:30:02.395Z,27.13
2018-02-14T21:32:29.880Z,27.90
2018-02-14T21:34:57.341Z,26.97
2018-02-14T21:37:24.856Z,28.20
2018-02-14T21:39:53.015Z,26.23
2018-02-14T21:42:20.515Z,25.70
2018-02-14T21:44:48.134Z,28.17
2018-02-14T21:47:15.624Z,26.97
2018-02-14T21:49:43.148Z,25.57
2018-02-14T21:52:10.714Z,28.17
2018-02-14T21:54:38.187Z,27.03
2018-02-14T21:57:05.659Z,24.17
2018-02-14T21:59:33.150Z,23.97
2018-02-14T22:02:00.681Z,25.20
2018-02-14T22:04:28.173Z,25.63
2018-02-14T22:06:55.678Z,27.73
2018-02-14T22:09:23.169Z,27.43
2018-02-14T22:11:50.656Z,25.77
2018-02-14T22:14:19.039Z,24.80
2018-02-14T22:16:46.518Z,24.57
2018-02-14T22:19:14.015Z,24.07
2018-02-14T22:21:41.476Z,23.17
2018-02-14T22:24:08.950Z,23.43
2018-02-14T22:26:36.426Z,24.00
2018-02-14T22:29:03.897Z,23.90
2018-02-14T22:31:31.361Z,22.93
2018-02-14T22:33:58.863Z,25.13
2018-02-14T22:36:26.336Z,23.37
2018-02-14T22:38:53.818Z,23.53
2018-02-14T22:41:21.293Z,26.17
2018-02-14T22:43:48.784Z,24.80
2018-02-14T22:46:16.271Z,24.30
2018-02-14T22:48:43.813Z,24.10
2018-02-14T22:51:11.310Z,25.80
2018-02-14T22:53:38.780Z,23.40
2018-02-14T22:56:06.290Z,23.00
2018-02-14T22:58:33.828Z,23.03
2018-02-14T23:01:01.379Z,24.93
2018-02-14T23:03:28.969Z,24.53
2018-02-14T23:06:13.621Z,21.97
2018-02-14T23:08:41.174Z,20.80
2018-02-14T23:11:08.677Z,24.40
2018-02-14T23:13:36.170Z,21.67
2018-02-14T23:16:03.660Z,21.60
2018-02-14T23:18:31.138Z,22.07
2018-02-14T23:20:58.646Z,21.03
2018-02-14T23:23:26.137Z,22.63
2018-02-14T23:25:53.693Z,22.27
2018-02-14T23:28:21.178Z,22.27
2018-02-14T23:30:48.655Z,23.00
2018-02-14T23:33:16.222Z,24.03
2018-02-14T23:35:43.715Z,21.23
2018-02-14T23:38:11.193Z,22.37
2018-02-14T23:40:38.664Z,20.23
2018-02-14T23:43:06.154Z,22.90
2018-02-14T23:45:33.620Z,22.40
2018-02-14T23:48:01.095Z,24.23
2018-02-14T23:50:28.569Z,21.13
2018-02-14T23:52:56.066Z,24.40
2018-02-14T23:55:23.526Z,22.33
2018-02-14T23:57:51.003Z,20.53
